Ocean Highway — H3IE — position and weather

sailwx.info

Track history (hours):
 
Tides and Currents Weather Stations Pressure Air Temp Water Temp Dewpoint Dewpoint Depression Visibility Wind Speed Wind Dir Waves Ship Positions

Ocean Highway

Last reported at 2015-May-27 13:20 UTC. Time now 2015-May-29 18:27 UTC.
Position N 31°08' W 081°32'.

Length 179.1 m; beam 32.2 m.

Type: Cargo ship. MMSI: 353951000.

Date/timePositionNaut miles runAvg speedWind from/ knotsBaromVisibWave heightAir tempDewpointWater temp
2015-May-27 13:20N 31°08' W 081°32'0 0.0
2015-May-27 12:20N 31°08' W 081°32'47615.3
2015-May-26 05:17N 31°43' W 072°15'  
2015-May-18 08:33N 49°58' W 003°07'1212.1
2015-May-18 07:33N 50°01' W 002°49'5713.5
2015-May-18 03:19N 50°16' W 001°23'1417.9
2015-May-18 02:32N 50°20' W 001°02'1917.9
2015-May-18 01:27N 50°25' W 000°33'1816.6
2015-May-18 00:21N 50°30' W 000°05'1415.6
2015-May-17 23:28N 50°33' E 000°16'1314.6
2015-May-17 22:33N 50°38' E 000°36'1413.9
2015-May-17 21:33N 50°46' E 000°54'1414.2
2015-May-17 20:32N 50°55' E 001°11'1616.8
2015-May-17 19:34N 51°05' E 001°32'1817.8
2015-May-17 18:33N 51°18' E 001°52'1313.1
2015-May-17 17:33N 51°22' E 002°12'1515.1
2015-May-17 16:33N 51°23' E 002°36'1413.9
2015-May-17 15:33N 51°23' E 002°58'1616.0
2015-May-17 14:33N 51°25' E 003°24'1211.7
2015-May-17 13:33N 51°25' E 003°42'  
Track history (hours):
 
Tides and Currents Weather Stations Pressure Air Temp Water Temp Dewpoint Dewpoint Depression Visibility Wind Speed Wind Dir Waves Ship Positions

Ocean Highway

Last reported at 2015-May-27 13:20 UTC. Time now 2015-May-29 18:27 UTC.
Position N 31°08' W 081°32'.

Length 179.1 m; beam 32.2 m.

Type: Cargo ship. MMSI: 353951000.

Date/timePositionNaut miles runAvg speedWind from/ knotsBaromVisibWave heightAir tempDewpointWater temp
2015-May-27 13:20N 31°08' W 081°32'0 0.0
2015-May-27 12:20N 31°08' W 081°32'47615.3
2015-May-26 05:17N 31°43' W 072°15'  
2015-May-18 08:33N 49°58' W 003°07'1212.1
2015-May-18 07:33N 50°01' W 002°49'5713.5
2015-May-18 03:19N 50°16' W 001°23'1417.9
2015-May-18 02:32N 50°20' W 001°02'1917.9
2015-May-18 01:27N 50°25' W 000°33'1816.6
2015-May-18 00:21N 50°30' W 000°05'1415.6
2015-May-17 23:28N 50°33' E 000°16'1314.6
2015-May-17 22:33N 50°38' E 000°36'1413.9
2015-May-17 21:33N 50°46' E 000°54'1414.2
2015-May-17 20:32N 50°55' E 001°11'1616.8
2015-May-17 19:34N 51°05' E 001°32'1817.8
2015-May-17 18:33N 51°18' E 001°52'1313.1
2015-May-17 17:33N 51°22' E 002°12'1515.1
2015-May-17 16:33N 51°23' E 002°36'1413.9
2015-May-17 15:33N 51°23' E 002°58'1616.0
2015-May-17 14:33N 51°25' E 003°24'1211.7
2015-May-17 13:33N 51°25' E 003°42'  

Dump ship's entire track history